Time;durP1;ratioP1;P1;durP2;ratioP2;P2;SDS_P1;SDS_P2;PMS_P1;PMS_P2;Temp;Humidity;BMP_temperature;BMP_pressure;BME280_temperature;BME280_humidity;BME280_pressure;Samples;Min_cycle;Max_cycle;Signal;HPM_P1;HPM_P2
2023/09/24 02:43:37;;;;;;;3.20;2.90;;;;;;;12.63;91.14;99644.26;107802;1295;544764;-45
2023/09/24 02:46:03;;;;;;;4.80;3.40;;;;;;;12.60;91.17;99651.48;108174;1305;22242;-47
2023/09/24 02:48:28;;;;;;;3.40;2.70;;;;;;;12.57;91.28;99656.56;108180;1305;22317;-46
2023/09/24 02:50:54;;;;;;;4.50;3.20;;;;;;;12.54;90.88;99664.13;108169;1282;22291;-44
2023/09/24 02:53:20;;;;;;;5.20;3.00;;;;;;;12.51;91.01;99663.61;108189;1286;22248;-48
2023/09/24 02:55:46;;;;;;;9.80;3.40;;;;;;;12.50;91.20;99665.92;108178;1305;22250;-45
2023/09/24 02:58:11;;;;;;;5.30;3.40;;;;;;;12.49;90.79;99668.11;107584;1286;1017217;-47
2023/09/24 03:00:39;;;;;;;6.00;3.30;;;;;;;12.46;91.14;99665.62;108361;1286;23282;-48
2023/09/24 03:03:05;;;;;;;5.20;3.50;;;;;;;12.46;91.10;99667.39;108380;1279;22204;-47
2023/09/24 03:05:31;;;;;;;4.50;2.80;;;;;;;12.46;91.01;99670.94;108370;1284;23262;-48
2023/09/24 03:08:02;;;;;;;4.60;3.00;;;;;;;12.43;91.36;99679.88;108397;1285;22685;-44
2023/09/24 03:10:30;;;;;;;4.40;3.30;;;;;;;12.41;91.08;99687.19;108354;1282;22374;-43
2023/09/24 03:12:55;;;;;;;4.10;3.40;;;;;;;12.38;91.28;99696.19;108385;1283;22266;-47
2023/09/24 03:15:20;;;;;;;3.80;3.50;;;;;;;12.35;91.95;99698.83;108349;1303;22334;-42
2023/09/24 03:17:49;;;;;;;4.30;3.60;;;;;;;12.34;92.20;99699.77;108368;1279;23056;-45
2023/09/24 03:20:15;;;;;;;3.80;3.30;;;;;;;12.32;92.22;99701.81;108369;1285;22990;-47
2023/09/24 03:23:10;;;;;;;4.90;3.70;;;;;;;12.32;92.02;99709.55;108357;1303;22221;-49
2023/09/24 03:25:35;;;;;;;8.40;3.70;;;;;;;12.29;92.46;99711.90;108344;1288;23248;-46
2023/09/24 03:28:01;;;;;;;5.40;3.50;;;;;;;12.29;92.13;99713.70;108365;1280;22219;-47
2023/09/24 03:30:27;;;;;;;4.50;3.70;;;;;;;12.28;92.50;99716.78;108397;1285;22208;-45
2023/09/24 03:32:53;;;;;;;6.10;3.80;;;;;;;12.27;92.19;99714.70;108370;1303;22396;-47
2023/09/24 03:35:24;;;;;;;4.30;3.80;;;;;;;12.26;92.18;99714.92;108382;1303;23081;-46
2023/09/24 03:37:50;;;;;;;8.60;3.60;;;;;;;12.27;92.25;99717.52;108374;1282;23182;-45
2023/09/24 03:40:17;;;;;;;11.00;3.90;;;;;;;12.27;92.62;99723.84;108354;1289;22237;-45
2023/09/24 03:42:44;;;;;;;6.10;3.90;;;;;;;12.28;92.70;99727.63;108354;1303;22323;-44
2023/09/24 03:45:15;;;;;;;9.60;4.10;;;;;;;12.30;92.63;99719.12;108366;1285;22417;-44
2023/09/24 03:47:40;;;;;;;3.90;3.50;;;;;;;12.30;92.69;99722.25;108379;1303;22397;-48
2023/09/24 03:50:16;;;;;;;3.60;3.30;;;;;;;12.29;92.70;99723.02;108389;1284;22524;-43
2023/09/24 03:52:47;;;;;;;6.50;4.10;;;;;;;12.29;92.36;99725.83;108405;1280;22471;-44
2023/09/24 03:55:15;;;;;;;5.10;3.40;;;;;;;12.29;92.45;99734.77;108376;1303;22237;-45
2023/09/24 03:57:41;;;;;;;7.40;3.90;;;;;;;12.29;92.49;99732.83;108362;1296;23112;-42
2023/09/24 04:00:15;;;;;;;5.40;4.00;;;;;;;12.29;92.59;99731.25;108379;1301;22262;-43
2023/09/24 04:02:43;;;;;;;6.10;4.10;;;;;;;12.30;92.93;99741.08;108389;1303;22472;-47
2023/09/24 04:05:09;;;;;;;5.50;3.80;;;;;;;12.30;92.86;99744.59;108364;1285;22312;-46
2023/09/24 04:07:38;;;;;;;9.70;3.90;;;;;;;12.30;92.71;99741.42;108391;1301;22477;-44
2023/09/24 04:10:05;;;;;;;5.50;4.10;;;;;;;12.29;93.32;99742.55;108372;1280;22296;-45
2023/09/24 04:12:34;;;;;;;6.00;4.10;;;;;;;12.28;93.05;99740.48;108388;1285;23100;-43
2023/09/24 04:15:04;;;;;;;4.70;3.80;;;;;;;12.29;92.61;99739.39;108364;1285;23077;-45
2023/09/24 04:17:29;;;;;;;5.30;4.40;;;;;;;12.31;92.84;99739.30;108379;1295;22416;-44
2023/09/24 04:19:54;;;;;;;5.00;4.10;;;;;;;12.31;92.77;99738.07;108370;1303;22470;-45
2023/09/24 04:22:19;;;;;;;6.20;3.60;;;;;;;12.29;92.98;99741.14;108362;1285;22311;-46
2023/09/24 04:24:45;;;;;;;7.50;3.80;;;;;;;12.27;93.29;99748.45;108370;1303;22267;-48
2023/09/24 04:27:10;;;;;;;6.90;4.10;;;;;;;12.24;93.52;99751.77;108400;1285;22223;-47
2023/09/24 04:29:36;;;;;;;4.20;3.80;;;;;;;12.23;93.77;99750.11;108390;1284;22402;-44
2023/09/24 04:32:02;;;;;;;6.20;4.30;;;;;;;12.23;93.89;99752.55;108371;1285;22427;-47
2023/09/24 04:34:27;;;;;;;4.30;3.80;;;;;;;12.23;93.74;99751.83;108371;1282;22310;-46
2023/09/24 04:36:52;;;;;;;7.30;4.50;;;;;;;12.22;94.23;99754.17;108354;1303;23041;-45
2023/09/24 04:39:19;;;;;;;5.50;4.10;;;;;;;12.20;94.34;99757.08;108350;1303;22303;-52
2023/09/24 04:41:45;;;;;;;4.70;3.90;;;;;;;12.19;94.30;99759.28;108376;1285;22128;-45
2023/09/24 04:44:10;;;;;;;7.50;4.00;;;;;;;12.19;94.43;99765.60;108353;1281;22219;-48
2023/09/24 04:46:36;;;;;;;6.80;4.40;;;;;;;12.17;93.96;99772.55;108370;1285;22219;-47
2023/09/24 04:49:02;;;;;;;6.10;4.20;;;;;;;12.17;93.63;99779.23;108382;1303;22272;-46
2023/09/24 04:51:29;;;;;;;7.60;4.10;;;;;;;12.20;93.68;99783.98;108393;1282;22398;-45
2023/09/24 04:53:54;;;;;;;5.60;4.20;;;;;;;12.21;93.89;99784.11;108389;1303;23099;-47
2023/09/24 04:56:19;;;;;;;6.00;3.80;;;;;;;12.23;93.67;99787.70;108380;1282;22408;-46
2023/09/24 04:58:44;;;;;;;7.60;4.00;;;;;;;12.24;93.87;99796.94;108370;1283;22420;-46
2023/09/24 05:01:10;;;;;;;7.70;4.30;;;;;;;12.25;93.64;99800.96;108391;1285;22248;-47
2023/09/24 05:03:37;;;;;;;5.00;4.00;;;;;;;12.25;93.47;99801.45;108357;1303;22301;-49
2023/09/24 05:06:05;;;;;;;8.70;4.30;;;;;;;12.24;93.52;99795.04;108368;1303;22425;-44
2023/09/24 05:08:32;;;;;;;9.20;4.20;;;;;;;12.23;93.61;99795.09;108381;1282;22698;-46
2023/09/24 05:10:58;;;;;;;6.00;4.40;;;;;;;12.22;93.79;99801.29;107779;1303;22560;-43
2023/09/24 05:13:23;;;;;;;6.00;4.00;;;;;;;12.22;93.97;99809.22;108365;1303;22687;-44
2023/09/24 05:15:53;;;;;;;7.30;4.80;;;;;;;12.23;93.76;99813.55;108363;1303;22572;-44
2023/09/24 05:18:20;;;;;;;5.90;4.00;;;;;;;12.25;93.96;99812.70;108379;1285;22308;-44
2023/09/24 05:20:45;;;;;;;7.30;4.40;;;;;;;12.27;94.13;99813.84;108374;1285;22224;-43
2023/09/24 05:23:11;;;;;;;5.10;4.20;;;;;;;12.28;94.32;99819.26;108368;1303;22230;-45
2023/09/24 05:25:36;;;;;;;9.20;5.20;;;;;;;12.30;94.15;99820.92;108359;1303;22257;-43
2023/09/24 05:28:02;;;;;;;9.20;4.40;;;;;;;12.33;93.67;99828.85;108379;1282;22275;-45
2023/09/24 05:30:27;;;;;;;4.60;4.20;;;;;;;12.35;93.65;99832.26;108385;1285;23048;-44
2023/09/24 05:32:53;;;;;;;9.50;4.70;;;;;;;12.38;93.57;99831.04;108356;1303;22456;-46
2023/09/24 05:35:18;;;;;;;7.60;4.20;;;;;;;12.39;93.54;99832.35;108354;1303;23043;-45
2023/09/24 05:37:43;;;;;;;6.60;4.30;;;;;;;12.40;94.19;99835.48;108369;1303;22290;-48
2023/09/24 05:40:10;;;;;;;5.60;3.90;;;;;;;12.40;94.03;99842.91;108386;1303;23015;-46
2023/09/24 05:42:35;;;;;;;6.10;4.30;;;;;;;12.40;94.36;99846.07;108370;1303;22932;-44
2023/09/24 05:45:01;;;;;;;11.00;4.20;;;;;;;12.42;94.40;99850.48;108377;1282;22238;-43
2023/09/24 05:47:27;;;;;;;6.90;4.10;;;;;;;12.46;94.01;99853.63;108362;1303;22509;-46
2023/09/24 05:49:53;;;;;;;7.60;4.40;;;;;;;12.49;93.71;99860.86;108353;1285;22209;-45
2023/09/24 05:52:18;;;;;;;5.40;4.60;;;;;;;12.50;93.57;99859.23;108388;1283;23073;-45
2023/09/24 05:54:43;;;;;;;6.50;4.70;;;;;;;12.51;93.51;99856.20;108377;1286;23187;-45
2023/09/24 05:57:09;;;;;;;7.30;4.90;;;;;;;12.50;93.28;99855.52;108394;1282;22332;-44
2023/09/24 05:59:34;;;;;;;6.40;4.60;;;;;;;12.51;93.53;99857.90;108367;1303;22233;-43
2023/09/24 06:02:00;;;;;;;5.70;4.60;;;;;;;12.52;93.37;99862.98;108361;1303;22429;-48
2023/09/24 06:04:25;;;;;;;5.70;4.50;;;;;;;12.52;93.08;99860.36;108366;1303;22233;-46
2023/09/24 06:06:50;;;;;;;6.30;4.50;;;;;;;12.48;93.38;99857.73;108365;1303;23147;-45
2023/09/24 06:09:17;;;;;;;6.80;4.10;;;;;;;12.48;93.72;99858.80;108362;1285;22705;-44
2023/09/24 06:11:44;;;;;;;5.00;4.20;;;;;;;12.47;93.49;99866.61;108379;1282;22236;-46
2023/09/24 06:14:10;;;;;;;6.10;4.20;;;;;;;12.46;93.43;99868.39;108403;1284;22788;-45
2023/09/24 06:16:36;;;;;;;4.90;4.30;;;;;;;12.46;93.45;99872.96;108393;1282;22926;-46
2023/09/24 06:19:02;;;;;;;5.50;4.20;;;;;;;12.46;93.23;99877.52;108353;1303;22201;-47
2023/09/24 06:21:27;;;;;;;7.40;4.30;;;;;;;12.46;93.14;99879.10;108380;1292;22241;-45
2023/09/24 06:23:54;;;;;;;9.40;4.30;;;;;;;12.46;93.33;99882.30;108382;1303;22970;-45
2023/09/24 06:26:20;;;;;;;5.50;4.40;;;;;;;12.46;93.23;99889.13;108386;1303;22237;-45
2023/09/24 06:28:45;;;;;;;6.40;4.70;;;;;;;12.49;93.19;99897.97;108375;1285;22405;-43
2023/09/24 06:31:11;;;;;;;4.60;4.20;;;;;;;12.50;93.42;99896.84;108352;1282;23280;-46
2023/09/24 06:33:36;;;;;;;7.30;4.60;;;;;;;12.50;93.49;99899.48;108376;1285;22221;-46
2023/09/24 06:36:04;;;;;;;6.40;4.40;;;;;;;12.52;93.27;99903.41;108364;1282;23175;-50
2023/09/24 06:38:30;;;;;;;7.00;4.70;;;;;;;12.53;93.33;99907.41;108366;1303;22971;-46
2023/09/24 06:41:00;;;;;;;7.70;4.60;;;;;;;12.55;93.13;99905.20;108376;1282;22625;-45
2023/09/24 06:43:25;;;;;;;8.00;4.80;;;;;;;12.57;93.21;99907.77;108365;1303;22768;-44
2023/09/24 06:45:52;;;;;;;7.50;5.00;;;;;;;12.56;93.12;99912.16;108372;1282;22424;-45
2023/09/24 06:48:19;;;;;;;5.50;4.50;;;;;;;12.59;93.85;99916.80;108366;1303;22926;-48
2023/09/24 06:50:44;;;;;;;7.50;4.20;;;;;;;12.65;93.75;99918.22;108368;1303;22962;-44
2023/09/24 06:53:09;;;;;;;4.30;3.90;;;;;;;12.73;93.50;99912.35;108346;1303;22258;-47
2023/09/24 06:55:39;;;;;;;6.70;4.80;;;;;;;12.77;93.18;99911.06;108373;1285;22263;-45
2023/09/24 06:58:04;;;;;;;6.70;4.70;;;;;;;12.81;92.96;99908.36;108378;1303;22519;-48
2023/09/24 07:00:29;;;;;;;4.60;4.10;;;;;;;12.90;92.63;99911.07;108348;1303;22126;-46
2023/09/24 07:02:55;;;;;;;5.20;4.20;;;;;;;12.99;92.82;99913.73;108362;1284;23017;-47
2023/09/24 07:05:20;;;;;;;8.20;4.50;;;;;;;13.10;92.85;99913.29;108352;1303;22356;-45
2023/09/24 07:07:45;;;;;;;4.90;4.40;;;;;;;13.22;92.59;99911.06;108369;1303;22222;-45
2023/09/24 07:10:11;;;;;;;5.90;4.50;;;;;;;13.30;92.23;99920.98;108359;1283;22194;-44
2023/09/24 07:12:36;;;;;;;12.40;3.90;;;;;;;13.39;92.16;99925.59;108339;1296;23014;-44
2023/09/24 07:15:01;;;;;;;6.10;4.00;;;;;;;13.42;91.78;99927.71;108378;1285;22444;-46
2023/09/24 07:17:26;;;;;;;6.60;4.60;;;;;;;13.43;91.02;99931.33;108346;1303;24180;-44
2023/09/24 07:19:52;;;;;;;7.00;4.40;;;;;;;13.48;90.87;99929.52;108361;1303;22402;-45
2023/09/24 07:22:21;;;;;;;5.70;4.20;;;;;;;13.51;90.63;99930.05;108364;1285;22292;-47
2023/09/24 07:24:46;;;;;;;6.30;4.50;;;;;;;13.53;90.32;99929.77;108375;1285;22233;-46
2023/09/24 07:27:11;;;;;;;8.90;4.50;;;;;;;13.57;90.40;99934.77;108371;1285;22532;-44
2023/09/24 07:29:37;;;;;;;5.90;4.60;;;;;;;13.62;90.05;99939.80;108347;1289;23345;-46
2023/09/24 07:32:03;;;;;;;7.50;4.10;;;;;;;13.67;90.13;99938.79;108369;1303;22349;-46
2023/09/24 07:34:28;;;;;;;7.90;4.00;;;;;;;13.71;89.42;99941.05;108372;1284;22189;-44
2023/09/24 07:36:54;;;;;;;4.90;4.10;;;;;;;13.70;88.91;99938.82;108351;1303;22360;-46
2023/09/24 07:39:19;;;;;;;7.10;3.70;;;;;;;13.72;88.74;99942.56;108371;1303;22432;-49
2023/09/24 07:41:45;;;;;;;6.40;3.50;;;;;;;13.79;88.83;99947.28;108329;1303;22162;-49
2023/09/24 07:44:10;;;;;;;4.70;3.70;;;;;;;13.84;88.27;99952.43;108385;1283;22344;-48
2023/09/24 07:46:35;;;;;;;8.60;4.00;;;;;;;13.85;87.64;99955.91;108359;1303;22226;-45
2023/09/24 07:49:05;;;;;;;4.00;3.50;;;;;;;13.87;87.58;99957.58;108377;1282;23233;-48
2023/09/24 07:51:30;;;;;;;7.40;3.80;;;;;;;13.92;88.10;99964.52;108374;1289;22202;-46
2023/09/24 07:53:55;;;;;;;4.00;3.50;;;;;;;14.01;88.49;99966.98;108374;1303;22168;-48
2023/09/24 07:56:21;;;;;;;5.20;3.50;;;;;;;14.13;88.50;99965.73;108362;1285;22206;-44
2023/09/24 07:58:46;;;;;;;4.80;3.70;;;;;;;14.22;87.93;99971.02;108345;1303;22653;-47
2023/09/24 08:01:13;;;;;;;7.70;3.30;;;;;;;14.32;87.44;99972.21;108393;1284;22269;-50
2023/09/24 08:03:39;;;;;;;4.20;3.30;;;;;;;14.39;87.54;99971.98;108379;1284;22281;-45
2023/09/24 08:06:06;;;;;;;8.20;4.10;;;;;;;14.48;86.86;99976.33;108361;1282;22936;-47
2023/09/24 08:08:34;;;;;;;6.30;3.60;;;;;;;14.57;87.11;99978.98;108380;1303;22216;-47
2023/09/24 08:11:00;;;;;;;5.20;3.50;;;;;;;14.58;85.35;99980.54;108379;1282;22843;-47
2023/09/24 08:13:27;;;;;;;5.70;3.90;;;;;;;14.61;85.25;99984.43;108366;1285;23005;-45
2023/09/24 08:15:52;;;;;;;4.20;3.70;;;;;;;14.61;85.08;99984.05;108365;1282;22204;-48
2023/09/24 08:18:17;;;;;;;6.70;3.70;;;;;;;14.67;85.63;99987.08;108347;1296;22212;-49
2023/09/24 08:20:44;;;;;;;5.30;4.70;;;;;;;14.69;85.73;99984.45;108355;1282;22415;-47
2023/09/24 08:23:10;;;;;;;4.10;3.60;;;;;;;14.69;85.64;99980.75;108318;1282;22203;-45
2023/09/24 08:25:35;;;;;;;4.20;3.50;;;;;;;14.73;85.58;99988.27;108376;1303;22233;-46
2023/09/24 08:28:01;;;;;;;9.10;4.20;;;;;;;14.81;85.67;99997.14;108356;1303;22245;-47
2023/09/24 08:30:28;;;;;;;4.90;4.20;;;;;;;14.87;85.56;99996.61;108351;1285;22234;-45
2023/09/24 08:32:53;;;;;;;8.00;4.00;;;;;;;14.86;85.06;99995.45;108379;1285;22385;-44
2023/09/24 08:35:19;;;;;;;5.10;3.80;;;;;;;14.86;84.94;99995.62;108365;1289;22215;-48
2023/09/24 08:37:44;;;;;;;6.60;4.10;;;;;;;14.86;84.74;99994.54;108358;1303;23116;-45
2023/09/24 08:40:11;;;;;;;9.70;4.90;;;;;;;14.85;83.89;99993.36;108338;1303;23309;-44
2023/09/24 08:42:37;;;;;;;5.90;4.40;;;;;;;14.89;84.40;99994.34;108375;1291;22402;-47
2023/09/24 08:45:14;;;;;;;5.60;4.10;;;;;;;14.95;84.81;100002.98;108362;1285;22216;-44
2023/09/24 08:47:39;;;;;;;9.20;4.10;;;;;;;15.05;85.22;100002.55;108353;1283;22228;-46
2023/09/24 08:50:06;;;;;;;4.50;3.80;;;;;;;15.11;84.71;100001.46;108362;1303;23041;-46
2023/09/24 08:52:40;;;;;;;7.60;3.90;;;;;;;15.12;84.12;100002.83;108351;1303;22201;-50
2023/09/24 08:55:09;;;;;;;10.80;4.20;;;;;;;15.18;84.29;100004.53;108369;1285;22522;-44
2023/09/24 08:57:35;;;;;;;4.80;3.70;;;;;;;15.30;84.03;100008.39;108377;1285;22452;-46
2023/09/24 09:00:01;;;;;;;9.70;4.00;;;;;;;15.41;83.73;100015.48;108363;1282;22311;-48
2023/09/24 09:02:27;;;;;;;15.30;9.70;;;;;;;15.44;82.99;100016.16;108358;1303;22325;-46
2023/09/24 09:04:55;;;;;;;4.40;4.00;;;;;;;15.52;83.68;100016.54;108345;1303;23512;-47
2023/09/24 09:07:20;;;;;;;;;;;;;;;15.62;83.98;100016.58;108351;1303;22485;-46
2023/09/24 09:09:55;;;;;;;6.10;4.10;;;;;;;15.75;84.36;100020.87;108349;1282;22398;-42
2023/09/24 09:12:24;;;;;;;6.00;3.50;;;;;;;15.87;83.27;100023.12;108366;1303;22206;-45
2023/09/24 09:14:50;;;;;;;6.60;3.70;;;;;;;16.01;82.71;100029.65;108356;1303;22202;-44
2023/09/24 09:17:15;;;;;;;3.20;2.80;;;;;;;16.21;83.10;100033.63;108378;1282;22218;-44
2023/09/24 09:19:52;;;;;;;5.70;2.90;;;;;;;16.36;81.31;100035.83;108380;1302;22253;-45
2023/09/24 09:22:20;;;;;;;3.80;3.00;;;;;;;16.53;81.56;100038.40;108487;1298;22209;-49
2023/09/24 09:24:48;;;;;;;4.50;3.30;;;;;;;16.64;81.23;100037.97;108477;1279;22247;-46
2023/09/24 09:27:13;;;;;;;4.30;2.90;;;;;;;16.74;81.73;100038.70;108482;1279;22289;-49
2023/09/24 09:29:38;;;;;;;4.20;3.10;;;;;;;16.83;81.69;100040.21;108452;1279;22874;-44
2023/09/24 09:32:04;;;;;;;6.10;3.10;;;;;;;16.96;80.83;100041.30;108463;1302;22939;-48
2023/09/24 09:34:29;;;;;;;3.10;2.20;;;;;;;17.03;79.32;100041.15;108442;1301;22257;-45
2023/09/24 09:37:17;;;;;;;3.20;2.50;;;;;;;17.04;77.80;100041.07;108447;1282;22883;-48
2023/09/24 09:39:43;;;;;;;9.20;2.30;;;;;;;17.04;77.51;100043.39;108460;1302;23388;-46
2023/09/24 09:42:14;;;;;;;4.50;2.30;;;;;;;17.06;77.65;100042.21;108475;1279;22373;-45
2023/09/24 09:44:41;;;;;;;4.00;2.50;;;;;;;17.10;77.41;100048.27;108488;1302;22207;-46
2023/09/24 09:47:09;;;;;;;7.30;2.30;;;;;;;17.20;77.67;100048.66;108450;1279;22389;-49
2023/09/24 09:49:39;;;;;;;3.20;2.20;;;;;;;17.28;76.77;100043.11;108491;1302;22439;-47
2023/09/24 09:52:06;;;;;;;2.30;2.00;;;;;;;17.36;77.26;100047.70;108462;1302;22233;-45
2023/09/24 09:54:34;;;;;;;;;;;;;;;17.50;77.79;100051.31;108484;1289;22486;-44
2023/09/24 09:57:00;;;;;;;3.60;1.80;;;;;;;17.63;77.89;100052.81;108494;1282;22815;-43
2023/09/24 09:59:27;;;;;;;3.70;1.60;;;;;;;17.74;76.15;100059.52;108495;1285;22638;-44
2023/09/24 10:01:53;;;;;;;6.80;1.20;;;;;;;17.76;71.91;100058.28;108516;1291;22212;-47
2023/09/24 10:04:21;;;;;;;2.50;1.30;;;;;;;17.85;73.76;100055.54;108483;1282;22223;-46
2023/09/24 10:06:47;;;;;;;3.20;1.60;;;;;;;17.95;73.97;100054.62;108482;1302;22365;-47
2023/09/24 10:09:29;;;;;;;3.50;1.30;;;;;;;18.03;71.88;100054.21;108455;1292;22361;-49
2023/09/24 10:11:56;;;;;;;2.40;1.40;;;;;;;18.00;69.92;100050.87;108394;1303;23153;-44
2023/09/24 10:14:33;;;;;;;4.20;1.90;;;;;;;18.00;67.35;100058.70;108346;1284;22955;-47
2023/09/24 10:17:19;;;;;;;4.50;1.40;;;;;;;18.06;68.63;100064.46;108348;1303;22193;-45
2023/09/24 10:20:06;;;;;;;1.90;1.20;;;;;;;18.11;69.77;100066.39;108363;1285;22253;-50
2023/09/24 10:22:34;;;;;;;1.90;1.50;;;;;;;18.16;70.02;100069.77;108364;1303;22728;-45
2023/09/24 10:25:21;;;;;;;3.20;1.40;;;;;;;18.20;69.78;100070.15;108342;1285;22243;-43
2023/09/24 10:28:05;;;;;;;3.60;1.10;;;;;;;18.23;68.45;100072.95;108373;1300;22233;-46
2023/09/24 10:31:04;;;;;;;2.10;1.10;;;;;;;18.24;67.18;100068.41;108357;1303;22388;-46
2023/09/24 10:33:57;;;;;;;1.90;1.20;;;;;;;18.23;66.57;100064.23;108384;1285;22973;-42
2023/09/24 10:36:29;;;;;;;2.50;1.20;;;;;;;18.26;67.18;100061.05;108339;1303;22228;-47
2023/09/24 10:39:10;;;;;;;2.40;1.10;;;;;;;18.20;65.86;100063.95;108371;1303;22223;-44
2023/09/24 10:41:36;;;;;;;2.70;1.10;;;;;;;18.25;65.80;100062.88;108343;1285;22276;-48
2023/09/24 10:44:27;;;;;;;3.10;1.10;;;;;;;18.29;65.93;100068.61;108332;1285;22988;-48
2023/09/24 10:46:53;;;;;;;1.70;1.40;;;;;;;18.27;64.88;100068.23;108349;1285;22973;-48
2023/09/24 10:49:19;;;;;;;2.10;1.30;;;;;;;18.17;63.50;100070.35;108349;1285;22234;-46
2023/09/24 10:51:45;;;;;;;3.00;1.50;;;;;;;18.25;65.24;100069.80;108369;1284;22197;-46
2023/09/24 10:54:15;;;;;;;2.70;1.50;;;;;;;18.59;64.23;100072.17;108349;1285;22223;-45
2023/09/24 10:56:45;;;;;;;1.50;1.40;;;;;;;18.82;64.83;100065.89;108371;1285;23229;-45
2023/09/24 10:59:10;;;;;;;2.20;1.40;;;;;;;18.73;61.28;100069.88;108353;1303;22204;-43
2023/09/24 11:01:35;;;;;;;1.90;1.60;;;;;;;18.68;60.52;100075.09;108349;1303;22398;-48
2023/09/24 11:04:01;;;;;;;4.20;1.60;;;;;;;18.90;61.77;100069.54;108327;1303;22395;-44
2023/09/24 11:06:32;;;;;;;1.30;1.20;;;;;;;19.02;60.73;100071.03;108353;1285;22424;-50
2023/09/24 11:09:17;;;;;;;2.00;1.50;;;;;;;19.18;59.36;100076.20;108338;1303;22262;-48
2023/09/24 11:11:43;;;;;;;6.30;2.00;;;;;;;19.08;58.97;100076.48;108339;1303;22405;-46
2023/09/24 11:14:17;;;;;;;1.30;1.20;;;;;;;19.15;59.49;100072.88;108346;1303;22962;-45
2023/09/24 11:16:43;;;;;;;2.20;1.30;;;;;;;19.34;60.01;100068.00;108360;1303;22464;-48
2023/09/24 11:19:08;;;;;;;3.30;1.70;;;;;;;19.55;60.31;100061.89;108358;1303;22223;-44
2023/09/24 11:21:33;;;;;;;3.00;1.50;;;;;;;19.57;61.31;100061.94;108333;1303;22250;-47
2023/09/24 11:23:58;;;;;;;2.10;1.40;;;;;;;19.92;59.94;100066.25;108356;1303;23356;-44
2023/09/24 11:26:28;;;;;;;2.20;1.80;;;;;;;20.80;60.00;100069.80;108331;1284;22439;-47
2023/09/24 11:28:56;;;;;;;2.50;1.60;;;;;;;21.60;56.44;100066.21;108357;1303;22208;-45
2023/09/24 11:31:25;;;;;;;1.90;1.70;;;;;;;22.47;54.39;100069.24;108344;1303;22251;-47
2023/09/24 11:33:55;;;;;;;1.90;1.30;;;;;;;23.14;49.81;100069.40;108385;1303;23095;-46
2023/09/24 11:36:21;;;;;;;4.30;1.70;;;;;;;23.68;48.87;100066.19;108354;1285;23142;-46
2023/09/24 11:38:46;;;;;;;4.40;1.80;;;;;;;23.97;45.92;100067.93;108339;1285;22221;-50
2023/09/24 11:41:13;;;;;;;2.50;1.80;;;;;;;23.84;45.42;100071.02;108346;1303;22223;-47
2023/09/24 11:43:39;;;;;;;4.20;1.60;;;;;;;23.28;47.37;100068.74;108337;1285;22332;-47
2023/09/24 11:46:21;;;;;;;3.80;1.60;;;;;;;22.71;48.19;100073.23;108343;1303;22294;-46
2023/09/24 11:48:47;;;;;;;5.90;2.00;;;;;;;23.17;48.11;100069.85;108354;1285;22419;-48
2023/09/24 11:51:12;;;;;;;2.70;1.40;;;;;;;24.05;46.16;100070.59;108357;1303;22363;-45
2023/09/24 11:53:38;;;;;;;3.10;1.60;;;;;;;24.84;47.40;100076.30;108341;1303;22451;-49
2023/09/24 11:56:04;;;;;;;1.70;1.20;;;;;;;24.67;44.44;100070.65;108344;1303;22211;-46
2023/09/24 11:58:30;;;;;;;1.50;1.40;;;;;;;24.90;42.08;100074.46;108345;1303;23169;-46
2023/09/24 12:00:57;;;;;;;4.00;1.60;;;;;;;25.73;42.24;100074.89;108353;1285;22204;-46
2023/09/24 12:03:23;;;;;;;1.80;1.70;;;;;;;26.27;41.04;100073.75;108365;1303;22621;-46
2023/09/24 12:05:49;;;;;;;1.60;1.50;;;;;;;26.22;39.68;100069.98;108340;1303;22483;-47
2023/09/24 12:08:15;;;;;;;4.80;1.50;;;;;;;25.91;39.74;100064.42;108353;1303;22231;-49
2023/09/24 12:10:46;;;;;;;3.30;1.50;;;;;;;25.19;41.71;100060.30;108367;1303;22282;-49
2023/09/24 12:13:12;;;;;;;3.00;1.70;;;;;;;24.86;42.57;100061.58;108357;1285;22294;-47
2023/09/24 12:15:37;;;;;;;3.50;1.50;;;;;;;25.48;39.94;100062.80;108343;1303;22092;-44
2023/09/24 12:18:04;;;;;;;2.10;1.40;;;;;;;26.44;39.38;100063.49;108351;1284;22291;-48
2023/09/24 12:20:31;;;;;;;;;;;;;;;26.60;40.07;100065.42;108360;1303;22419;-47
2023/09/24 12:22:59;;;;;;;2.60;1.40;;;;;;;25.88;40.44;100060.17;108334;1303;22193;-48
2023/09/24 12:25:24;;;;;;;1.70;1.20;;;;;;;24.80;39.66;100063.61;108332;1303;22247;-48
2023/09/24 12:27:50;;;;;;;1.30;1.20;;;;;;;23.98;40.62;100060.73;108318;1303;22336;-49
2023/09/24 12:30:15;;;;;;;2.90;1.40;;;;;;;24.30;42.12;100058.64;108340;1303;22369;-50
2023/09/24 12:32:41;;;;;;;2.10;1.50;;;;;;;25.17;40.35;100055.86;108350;1303;23070;-46
2023/09/24 12:35:08;;;;;;;4.10;1.40;;;;;;;26.12;39.69;100057.36;108340;1303;22576;-47
2023/09/24 12:37:35;;;;;;;1.80;1.40;;;;;;;27.43;37.96;100056.02;108332;1303;22400;-46
2023/09/24 12:40:05;;;;;;;;;;;;;;;26.95;36.70;100066.63;108365;1303;22455;-48
2023/09/24 12:42:31;;;;;;;1.70;1.40;;;;;;;25.90;37.09;100062.86;108349;1285;22398;-50
2023/09/24 12:44:58;;;;;;;1.50;1.20;;;;;;;26.93;36.66;100063.23;108354;1302;22656;-49
2023/09/24 12:47:24;;;;;;;2.00;1.30;;;;;;;28.23;33.67;100063.00;108480;1302;22221;-47
2023/09/24 12:49:53;;;;;;;2.10;1.40;;;;;;;29.07;31.79;100062.81;108472;1283;22395;-46
2023/09/24 12:52:18;;;;;;;1.50;1.10;;;;;;;29.49;32.62;100067.08;108455;1302;22362;-47
2023/09/24 12:54:43;;;;;;;1.60;1.20;;;;;;;30.26;31.85;100063.85;108449;1285;22235;-51
2023/09/24 12:57:09;;;;;;;1.60;0.90;;;;;;;30.82;30.33;100070.43;108406;1303;23375;-45
2023/09/24 12:59:34;;;;;;;2.50;1.60;;;;;;;30.25;31.25;100068.30;108322;1303;22276;-48
2023/09/24 13:01:59;;;;;;;2.70;1.00;;;;;;;28.37;31.19;100069.04;108377;1284;22255;-47
2023/09/24 13:04:24;;;;;;;2.20;1.00;;;;;;;26.75;32.65;100072.29;108329;1303;22325;-48
2023/09/24 13:06:50;;;;;;;5.00;0.90;;;;;;;25.25;34.64;100064.88;108342;1303;23620;-49
2023/09/24 13:09:16;;;;;;;1.50;1.20;;;;;;;24.66;36.07;100066.48;108340;1286;22517;-46
2023/09/24 13:11:44;;;;;;;2.70;1.30;;;;;;;25.63;36.13;100068.06;108331;1303;22225;-46
2023/09/24 13:14:09;;;;;;;2.80;1.40;;;;;;;27.18;35.76;100072.55;108356;1285;22221;-49
2023/09/24 13:16:34;;;;;;;1.50;1.10;;;;;;;28.22;32.45;100068.48;108332;1303;22492;-47
2023/09/24 13:19:00;;;;;;;4.10;1.10;;;;;;;28.68;31.58;100069.36;108355;1285;22298;-49
2023/09/24 13:21:25;;;;;;;1.30;1.10;;;;;;;28.49;31.38;100070.80;108356;1303;22239;-46
2023/09/24 13:23:51;;;;;;;2.30;1.30;;;;;;;27.55;32.68;100074.70;108324;1303;23325;-48
2023/09/24 13:26:16;;;;;;;1.40;1.10;;;;;;;27.28;32.67;100074.48;108377;1303;22406;-43
2023/09/24 13:28:42;;;;;;;2.60;1.20;;;;;;;26.46;34.28;100077.64;108335;1303;22230;-49
2023/09/24 13:31:07;;;;;;;1.90;1.10;;;;;;;25.75;35.32;100076.66;107873;1303;22264;-49
2023/09/24 13:33:33;;;;;;;3.30;1.30;;;;;;;24.82;35.99;100074.05;108340;1284;23023;-46
2023/09/24 13:35:58;;;;;;;3.20;1.30;;;;;;;24.45;37.54;100075.52;108346;1303;22386;-43
2023/09/24 13:38:23;;;;;;;4.10;1.40;;;;;;;24.50;37.72;100075.23;108308;1285;22562;-45
2023/09/24 13:40:49;;;;;;;2.40;1.40;;;;;;;24.41;37.91;100074.32;108336;1303;22225;-45
2023/09/24 13:43:14;;;;;;;1.70;1.10;;;;;;;24.47;37.88;100077.70;108334;1303;22227;-44
2023/09/24 13:45:46;;;;;;;5.00;1.40;;;;;;;24.42;38.01;100077.65;108343;1285;22418;-48
2023/09/24 13:48:12;;;;;;;1.40;1.10;;;;;;;24.27;38.49;100076.65;108365;1286;22239;-47
2023/09/24 13:50:38;;;;;;;1.00;0.90;;;;;;;24.05;38.77;100074.40;108352;1285;22595;-46
2023/09/24 13:53:03;;;;;;;2.20;1.40;;;;;;;23.67;39.20;100067.55;108356;1286;22224;-50
2023/09/24 13:55:35;;;;;;;1.60;1.20;;;;;;;23.21;39.92;100072.14;108342;1303;22330;-45
2023/09/24 13:58:01;;;;;;;3.50;1.60;;;;;;;22.81;40.03;100078.54;108369;1285;22896;-46
2023/09/24 14:00:27;;;;;;;1.60;1.30;;;;;;;22.23;40.66;100075.23;108348;1285;22413;-46
2023/09/24 14:02:52;;;;;;;3.00;1.60;;;;;;;21.80;41.83;100076.39;108341;1303;22222;-47
2023/09/24 14:05:17;;;;;;;1.40;1.10;;;;;;;21.67;42.40;100075.05;108333;1303;22227;-50